Terminal Aerodrome Forecast
Issued by NWS

Home | Current Version | Previous Version | Text Only | Print | Product List | Glossary On
Versions: 1 2 3 4 5 6 7 8 9 10 11 12 13 14 15
000
FTUS41 KBTV 252320
TAFRUT
TAF
KRUT 252320Z 2600/2624 VRB05KT P6SM SCT100 BKN250
     FM260800 VRB03KT P6SM SCT050 OVC100
     FM261000 VRB03KT P6SM VCSH OVC045
     FM261200 36005KT 5SM -SN BR OVC030
     FM261500 02006KT 3SM -SN BR OVC015
     FM261700 02007KT 1SM -SN BR OVC007
      AMD LTD TO CLD VIS AND WIND=

USA.gov is the U.S. government's official web portal to all federal, state and local government web resources and services.